createdAt,value
2023-04-21T00:02:54.774Z,95286.34
2023-04-21T00:05:43.152Z,95275.56
2023-04-21T00:08:29.270Z,95276.19
2023-04-21T00:11:15.374Z,95285.97
2023-04-21T00:14:01.309Z,95282.78
2023-04-21T00:16:47.444Z,95278.00
2023-04-21T00:19:33.908Z,95280.22
2023-04-21T00:22:19.893Z,95271.84
2023-04-21T00:25:06.517Z,95268.66
2023-04-21T00:27:52.422Z,95278.31
2023-04-21T00:30:38.181Z,95279.50
2023-04-21T00:33:24.041Z,95276.81
2023-04-21T00:36:10.035Z,95277.94
2023-04-21T00:38:55.857Z,95265.88
2023-04-21T00:41:41.652Z,95281.03
2023-04-21T00:44:27.751Z,95276.63
2023-04-21T00:47:13.611Z,95269.25
2023-04-21T00:49:59.849Z,95259.69
2023-04-21T00:52:47.293Z,95266.66
2023-04-21T00:55:33.170Z,95269.94
2023-04-21T00:58:19.216Z,95258.78
2023-04-21T01:01:05.578Z,95259.28
2023-04-21T01:03:51.956Z,95261.97
2023-04-21T01:06:38.099Z,95254.28
2023-04-21T01:09:24.182Z,95258.28
2023-04-21T01:12:11.543Z,95271.22
2023-04-21T01:14:57.807Z,95271.22
2023-04-21T01:17:43.875Z,95258.97
2023-04-21T01:20:31.904Z,95264.34
2023-04-21T01:23:18.857Z,95254.69
2023-04-21T01:26:04.902Z,95254.19
2023-04-21T01:28:57.472Z,95259.06
2023-04-21T01:31:44.126Z,95261.28
2023-04-21T01:34:30.031Z,95256.69
2023-04-21T01:37:18.880Z,95260.47
2023-04-21T01:40:07.632Z,95252.69
2023-04-21T01:42:53.638Z,95245.50
2023-04-21T01:45:39.829Z,95246.28
2023-04-21T01:48:25.528Z,95255.47
2023-04-21T01:51:11.442Z,95251.28
2023-04-21T01:53:57.146Z,95240.59
2023-04-21T01:56:42.868Z,95248.88
2023-04-21T01:59:28.873Z,95251.88
2023-04-21T02:02:15.062Z,95236.69
2023-04-21T02:05:00.660Z,95247.69
2023-04-21T02:07:46.549Z,95239.69
2023-04-21T02:10:33.784Z,95233.91
2023-04-21T02:13:19.793Z,95238.19
2023-04-21T02:16:13.281Z,95234.47
2023-04-21T02:19:00.119Z,95236.66
2023-04-21T02:21:46.615Z,95222.81
2023-04-21T02:24:32.663Z,95238.16
2023-04-21T02:27:18.379Z,95235.06
2023-04-21T02:30:04.514Z,95233.47
2023-04-21T02:32:50.439Z,95229.25
2023-04-21T02:35:36.340Z,95236.22
2023-04-21T02:38:21.932Z,95236.00
2023-04-21T02:41:07.819Z,95244.38
2023-04-21T02:43:53.939Z,95242.03
2023-04-21T02:46:42.075Z,95237.75
2023-04-21T02:49:27.996Z,95238.44
2023-04-21T02:52:16.597Z,95244.91
2023-04-21T02:55:03.468Z,95242.72
2023-04-21T02:57:49.765Z,95247.00
2023-04-21T03:00:36.069Z,95243.75
2023-04-21T03:03:22.206Z,95239.94
2023-04-21T03:06:08.681Z,95237.25
2023-04-21T03:08:54.731Z,95233.97
2023-04-21T03:11:40.560Z,95241.47
2023-04-21T03:14:26.410Z,95235.00
2023-04-21T03:17:12.108Z,95233.41
2023-04-21T03:19:57.995Z,95233.31
2023-04-21T03:22:43.751Z,95234.91
2023-04-21T03:25:29.724Z,95236.59
2023-04-21T03:28:17.023Z,95244.00
2023-04-21T03:31:03.276Z,95243.19
2023-04-21T03:33:49.077Z,95249.38
2023-04-21T03:36:35.508Z,95249.66
2023-04-21T03:39:22.248Z,95251.03
2023-04-21T03:42:09.789Z,95253.31
2023-04-21T03:44:55.808Z,95256.06
2023-04-21T03:47:41.789Z,95249.19
2023-04-21T03:50:27.552Z,95252.44
2023-04-21T03:53:13.359Z,95253.63
2023-04-21T03:55:59.147Z,95247.22
2023-04-21T03:58:44.942Z,95253.94
2023-04-21T04:01:31.253Z,95261.31
2023-04-21T04:04:17.506Z,95266.44
2023-04-21T04:07:03.438Z,95265.13
2023-04-21T04:09:49.445Z,95263.06
2023-04-21T04:12:35.067Z,95267.81
2023-04-21T04:15:21.054Z,95264.66
2023-04-21T04:18:07.030Z,95262.44
2023-04-21T04:20:52.808Z,95256.06
2023-04-21T04:23:38.589Z,95271.63
2023-04-21T04:26:25.299Z,95279.75
2023-04-21T04:29:11.303Z,95280.91
2023-04-21T04:31:58.180Z,95281.78
2023-04-21T04:34:43.946Z,95275.06
2023-04-21T04:37:29.784Z,95280.53
2023-04-21T04:40:15.862Z,95292.22
2023-04-21T04:43:36.920Z,95290.06
2023-04-21T04:46:24.860Z,95289.97
2023-04-21T04:49:10.815Z,95296.38
2023-04-21T04:51:56.685Z,95299.28
2023-04-21T04:54:42.719Z,95291.44
2023-04-21T04:57:28.417Z,95302.63
2023-04-21T05:00:14.884Z,95307.41
2023-04-21T05:03:00.995Z,95311.38
2023-04-21T05:05:47.074Z,95310.50
2023-04-21T05:08:33.624Z,95299.84
2023-04-21T05:11:19.697Z,95313.84
2023-04-21T05:14:05.559Z,95302.88
2023-04-21T05:16:51.615Z,95312.88
2023-04-21T05:19:40.099Z,95317.69
2023-04-21T05:22:26.441Z,95309.56
2023-04-21T05:25:15.546Z,95303.09
2023-04-21T05:28:01.627Z,95300.59
2023-04-21T05:30:47.331Z,95307.41
2023-04-21T05:33:33.186Z,95303.34
2023-04-21T05:36:20.464Z,95305.34
2023-04-21T05:39:06.504Z,95294.59
2023-04-21T05:41:52.572Z,95298.69
2023-04-21T05:44:38.986Z,95301.81
2023-04-21T05:47:25.023Z,95302.22
2023-04-21T05:50:11.119Z,95297.34
2023-04-21T05:52:57.064Z,95301.53
2023-04-21T05:55:42.862Z,95301.47
2023-04-21T05:58:28.789Z,95303.53
2023-04-21T06:01:15.560Z,95307.75
2023-04-21T06:04:01.506Z,95305.75
2023-04-21T06:06:47.736Z,95291.41
2023-04-21T06:09:33.648Z,95295.19
2023-04-21T06:12:19.681Z,95291.00
2023-04-21T06:15:06.083Z,95292.09
2023-04-21T06:17:55.641Z,95290.00
2023-04-21T06:20:42.368Z,95288.69
2023-04-21T06:23:28.492Z,95288.19
2023-04-21T06:26:14.230Z,95291.47
2023-04-21T06:29:00.033Z,95286.63
2023-04-21T06:31:46.116Z,95281.81
2023-04-21T06:34:31.797Z,95285.66
2023-04-21T06:37:17.860Z,95278.13
2023-04-21T06:40:04.421Z,95281.06
2023-04-21T06:42:50.656Z,95279.72
2023-04-21T06:45:36.938Z,95281.06
2023-04-21T06:48:22.633Z,95277.81
2023-04-21T06:51:08.500Z,95279.94
2023-04-21T06:53:54.455Z,95275.88
2023-04-21T06:56:41.571Z,95272.41
2023-04-21T06:59:27.285Z,95274.84
2023-04-21T07:02:13.147Z,95273.94
2023-04-21T07:04:59.056Z,95278.75
2023-04-21T07:07:45.067Z,95273.41
2023-04-21T07:10:32.088Z,95263.72
2023-04-21T07:13:18.258Z,95267.41
2023-04-21T07:16:11.927Z,95266.44
2023-04-21T07:18:57.767Z,95261.38
2023-04-21T07:21:43.708Z,95260.44
2023-04-21T07:24:29.529Z,95263.16
2023-04-21T07:27:15.737Z,95261.72
2023-04-21T07:30:01.548Z,95256.16
2023-04-21T07:32:47.210Z,95255.81
2023-04-21T07:35:33.399Z,95264.09
2023-04-21T07:38:19.222Z,95260.75
2023-04-21T07:41:05.337Z,95260.53
2023-04-21T07:43:53.683Z,95255.44
2023-04-21T07:46:39.668Z,95263.34
2023-04-21T07:49:25.650Z,95265.84
2023-04-21T07:52:11.596Z,95271.72
2023-04-21T07:54:57.352Z,95267.50
2023-04-21T07:57:43.512Z,95270.97
2023-04-21T08:00:29.380Z,95269.81
2023-04-21T08:03:15.318Z,95266.28
2023-04-21T08:06:02.137Z,95264.94
2023-04-21T08:08:48.162Z,95271.72
2023-04-21T08:11:33.945Z,95274.41
2023-04-21T08:14:20.182Z,95269.25
2023-04-21T08:17:06.323Z,95270.44
2023-04-21T08:19:52.675Z,95275.13
2023-04-21T08:22:38.627Z,95271.25
2023-04-21T08:25:24.944Z,95276.94
2023-04-21T08:28:11.108Z,95267.91
2023-04-21T08:30:57.108Z,95253.34
2023-04-21T08:33:54.004Z,95252.13
2023-04-21T08:36:45.077Z,95250.91
2023-04-21T08:39:30.798Z,95252.72
2023-04-21T08:42:18.252Z,95250.63
2023-04-21T08:45:06.482Z,95251.97
2023-04-21T08:47:52.535Z,95253.34
2023-04-21T08:50:38.610Z,95252.94
2023-04-21T08:53:24.571Z,95246.16
2023-04-21T08:56:11.888Z,95245.72
2023-04-21T08:58:57.886Z,95233.59
2023-04-21T09:02:18.094Z,95239.38
2023-04-21T09:05:05.743Z,95236.66
2023-04-21T09:07:53.689Z,95221.44
2023-04-21T09:10:47.598Z,95233.25
2023-04-21T09:13:35.378Z,95213.94
2023-04-21T09:16:22.578Z,95209.19
2023-04-21T09:19:18.434Z,95222.53
2023-04-21T09:22:04.437Z,95217.28
2023-04-21T09:24:58.185Z,95218.84
2023-04-21T09:27:44.484Z,95206.31
2023-04-21T09:30:30.565Z,95208.91
2023-04-21T09:33:27.932Z,95208.06
2023-04-21T09:36:21.036Z,95210.38
2023-04-21T09:41:57.612Z,95201.50
2023-04-21T09:44:52.517Z,95211.22
2023-04-21T09:47:43.317Z,95200.41
2023-04-21T09:53:21.392Z,95191.38
2023-04-21T09:56:17.054Z,95190.66
2023-04-21T09:59:07.309Z,95190.13
2023-04-21T10:01:54.193Z,95188.91
2023-04-21T10:04:43.178Z,95194.59
2023-04-21T10:07:29.393Z,95188.66
2023-04-21T10:10:28.322Z,95187.41
2023-04-21T10:13:16.722Z,95176.78
2023-04-21T10:16:07.962Z,95180.25
2023-04-21T10:18:54.026Z,95184.81
2023-04-21T10:21:39.970Z,95185.38
2023-04-21T10:24:29.991Z,95166.09
2023-04-21T10:27:39.708Z,95176.53
2023-04-21T10:30:29.091Z,95167.19
2023-04-21T10:33:18.195Z,95165.56
2023-04-21T10:36:05.200Z,95162.81
2023-04-21T10:39:00.162Z,95155.28
2023-04-21T10:41:50.289Z,95161.88
2023-04-21T10:44:36.296Z,95152.44
2023-04-21T10:48:26.448Z,95152.13
2023-04-21T11:05:02.623Z,95136.06
2023-04-21T11:07:48.559Z,95141.31
2023-04-21T11:11:44.794Z,95133.31
2023-04-21T11:14:31.375Z,95131.25
2023-04-21T11:22:12.545Z,95129.56
2023-04-21T11:35:24.132Z,95128.47
2023-04-21T11:38:10.719Z,95123.81
2023-04-21T11:40:56.500Z,95117.19
2023-04-21T11:43:46.049Z,95124.75
2023-04-21T11:46:33.524Z,95115.28
2023-04-21T11:49:19.455Z,95117.59
2023-04-21T11:52:05.371Z,95115.25
2023-04-21T11:55:18.069Z,95114.50
2023-04-21T11:58:04.380Z,95116.09
2023-04-21T12:00:51.253Z,95110.56
2023-04-21T12:03:37.034Z,95106.59
2023-04-21T12:06:25.491Z,95106.56
2023-04-21T12:09:21.538Z,95098.69
2023-04-21T12:12:17.673Z,95101.81
2023-04-21T12:15:04.595Z,95092.31
2023-04-21T12:17:54.690Z,95086.75
2023-04-21T12:20:49.902Z,95083.16
2023-04-21T12:23:35.821Z,95083.38
2023-04-21T12:26:23.832Z,95084.13
2023-04-21T12:29:09.580Z,95087.69
2023-04-21T12:31:55.557Z,95073.72
2023-04-21T12:34:41.887Z,95074.13
2023-04-21T12:37:28.344Z,95068.56
2023-04-21T12:40:14.052Z,95079.09
2023-04-21T12:42:59.930Z,95079.09
2023-04-21T12:45:49.045Z,95074.50
2023-04-21T12:48:35.644Z,95089.91
2023-04-21T12:51:21.982Z,95086.88
2023-04-21T12:54:07.884Z,95083.75
2023-04-21T12:56:54.377Z,95076.53
2023-04-21T12:59:40.038Z,95079.44
2023-04-21T13:02:25.907Z,95069.66
2023-04-21T13:05:12.877Z,95068.00
2023-04-21T13:07:58.859Z,95074.91
2023-04-21T13:10:45.996Z,95065.63
2023-04-21T13:13:32.070Z,95071.19
2023-04-21T13:16:18.186Z,95068.06
2023-04-21T13:19:04.555Z,95068.03
2023-04-21T13:21:52.649Z,95061.69
2023-04-21T13:24:39.960Z,95057.66
2023-04-21T13:27:26.298Z,95059.19
2023-04-21T13:30:13.456Z,95064.66
2023-04-21T13:32:59.442Z,95069.75
2023-04-21T13:35:45.536Z,95062.25
2023-04-21T13:38:32.326Z,95061.47
2023-04-21T13:41:18.292Z,95057.97
2023-04-21T13:44:04.432Z,95051.75
2023-04-21T13:46:52.583Z,95045.06
2023-04-21T13:49:39.567Z,95042.78
2023-04-21T13:52:26.006Z,95051.47
2023-04-21T13:55:12.954Z,95048.31
2023-04-21T13:58:01.975Z,95044.38
2023-04-21T14:00:48.118Z,95040.44
2023-04-21T14:03:34.395Z,95035.78
2023-04-21T14:06:20.584Z,95041.31
2023-04-21T14:09:06.680Z,95029.38
2023-04-21T14:11:52.825Z,95044.25
2023-04-21T14:14:39.346Z,95037.84
2023-04-21T14:17:25.744Z,95036.19
2023-04-21T14:20:11.990Z,95042.06
2023-04-21T14:23:01.413Z,95027.50
2023-04-21T14:25:48.048Z,95037.88
2023-04-21T14:28:34.485Z,95026.97
2023-04-21T14:31:22.030Z,95021.53
2023-04-21T14:34:08.273Z,95029.09
2023-04-21T14:36:54.504Z,95032.66
2023-04-21T14:39:40.590Z,95035.00
2023-04-21T14:42:26.504Z,95027.94
2023-04-21T14:45:12.617Z,95033.41
2023-04-21T14:47:59.026Z,95028.19
2023-04-21T14:50:45.176Z,95034.03
2023-04-21T14:53:31.713Z,95034.75
2023-04-21T14:56:17.891Z,95022.88
2023-04-21T14:59:04.329Z,95017.28
2023-04-21T15:01:50.244Z,95023.47
2023-04-21T15:04:36.683Z,95029.69
2023-04-21T15:07:24.837Z,95017.84
2023-04-21T15:10:11.557Z,95019.81
2023-04-21T15:12:57.832Z,95019.41
2023-04-21T15:15:44.602Z,95015.06
2023-04-21T15:18:30.635Z,95013.91
2023-04-21T15:21:16.596Z,95010.75
2023-04-21T15:24:02.593Z,95021.72
2023-04-21T15:26:48.285Z,95009.09
2023-04-21T15:29:34.566Z,95025.19
2023-04-21T15:32:21.393Z,95018.41
2023-04-21T15:35:07.770Z,95015.91
2023-04-21T15:37:54.168Z,95006.41
2023-04-21T15:40:53.210Z,95013.78
2023-04-21T15:43:48.300Z,95013.31
2023-04-21T15:46:36.801Z,95009.31
2023-04-21T15:49:31.931Z,95015.50
2023-04-21T15:52:17.700Z,95012.22
2023-04-21T15:55:03.634Z,95023.13
2023-04-21T15:57:49.831Z,95016.78
2023-04-21T16:00:41.981Z,95021.34
2023-04-21T16:03:28.138Z,95014.22
2023-04-21T16:06:14.055Z,95012.63
2023-04-21T16:09:00.081Z,95017.44
2023-04-21T16:11:46.320Z,94999.56
2023-04-21T16:14:46.649Z,95010.69
2023-04-21T16:17:38.280Z,95005.31
2023-04-21T16:20:24.485Z,95005.47
2023-04-21T16:23:10.428Z,95015.00
2023-04-21T16:25:56.651Z,95005.59
2023-04-21T16:28:42.825Z,95011.09
2023-04-21T16:31:28.939Z,95006.34
2023-04-21T16:34:16.242Z,95015.75
2023-04-21T16:37:02.106Z,95018.84
2023-04-21T16:39:48.081Z,95011.69
2023-04-21T16:42:34.591Z,95012.38
2023-04-21T16:45:20.581Z,95011.50
2023-04-21T16:48:07.044Z,95015.31
2023-04-21T16:50:54.260Z,95015.22
2023-04-21T16:53:42.154Z,95019.81
2023-04-21T16:56:28.318Z,95025.09
2023-04-21T16:59:14.176Z,95021.06
2023-04-21T17:02:00.198Z,95032.72
2023-04-21T17:04:46.595Z,95033.34
2023-04-21T17:07:32.566Z,95020.66
2023-04-21T17:10:18.716Z,95037.38
2023-04-21T17:13:06.115Z,95032.13
2023-04-21T17:15:52.291Z,95035.03
2023-04-21T17:18:38.644Z,95045.03
2023-04-21T17:21:28.851Z,95054.28
2023-04-21T17:24:21.228Z,95048.16
2023-04-21T17:27:07.499Z,95047.91
2023-04-21T17:29:54.063Z,95056.28
2023-04-21T17:32:43.814Z,95059.63
2023-04-21T17:35:29.843Z,95059.34
2023-04-21T17:38:15.740Z,95064.22
2023-04-21T17:41:02.090Z,95058.47
2023-04-21T17:43:48.152Z,95068.84
2023-04-21T17:46:34.483Z,95056.91
2023-04-21T17:49:23.118Z,95078.63
2023-04-21T17:52:09.259Z,95079.59
2023-04-21T17:54:54.952Z,95086.06
2023-04-21T17:57:40.773Z,95080.00
2023-04-21T18:00:28.293Z,95082.59
2023-04-21T18:03:14.736Z,95083.16
2023-04-21T18:06:01.304Z,95086.00
2023-04-21T18:08:47.369Z,95101.97
2023-04-21T18:11:33.362Z,95104.59
2023-04-21T18:14:19.293Z,95106.00
2023-04-21T18:17:06.103Z,95105.19
2023-04-21T18:19:52.041Z,95099.50
2023-04-21T18:22:38.478Z,95107.31
2023-04-21T18:25:40.644Z,95110.34
2023-04-21T18:28:29.605Z,95109.34
2023-04-21T18:31:15.992Z,95113.13
2023-04-21T18:34:02.077Z,95114.47
2023-04-21T18:36:49.456Z,95119.00
2023-04-21T18:39:35.193Z,95122.00
2023-04-21T18:42:21.649Z,95118.63
2023-04-21T18:45:10.855Z,95120.06
2023-04-21T18:47:57.868Z,95119.88
2023-04-21T18:50:43.756Z,95129.88
2023-04-21T18:53:30.473Z,95124.31
2023-04-21T18:56:16.787Z,95133.53
2023-04-21T18:59:02.773Z,95131.03
2023-04-21T19:01:49.081Z,95128.81
2023-04-21T19:04:36.822Z,95136.19
2023-04-21T19:07:28.009Z,95121.81
2023-04-21T19:10:13.832Z,95142.91
2023-04-21T19:13:01.586Z,95141.13
2023-04-21T19:15:50.657Z,95145.66
2023-04-21T19:18:36.704Z,95149.53
2023-04-21T19:21:23.700Z,95148.63
2023-04-21T19:24:09.420Z,95147.63
2023-04-21T19:26:55.239Z,95153.66
2023-04-21T19:29:41.592Z,95160.69
2023-04-21T19:32:27.945Z,95160.47
2023-04-21T19:35:14.041Z,95163.53
2023-04-21T19:37:59.969Z,95149.16
2023-04-21T19:40:45.990Z,95165.56
2023-04-21T19:43:31.858Z,95156.88
2023-04-21T19:46:17.773Z,95164.56
2023-04-21T19:49:03.942Z,95161.28
2023-04-21T19:51:51.855Z,95159.59
2023-04-21T19:54:38.475Z,95169.56
2023-04-21T19:57:25.886Z,95173.41
2023-04-21T20:00:12.756Z,95170.94
2023-04-21T20:02:59.004Z,95171.59
2023-04-21T20:05:45.799Z,95169.56
2023-04-21T20:08:31.847Z,95167.53
2023-04-21T20:11:17.884Z,95166.59
2023-04-21T20:14:04.272Z,95171.91
2023-04-21T20:16:50.759Z,95164.31
2023-04-21T20:19:40.386Z,95165.44
2023-04-21T20:22:26.649Z,95166.81
2023-04-21T20:25:13.570Z,95174.97
2023-04-21T20:27:59.318Z,95166.56
2023-04-21T20:30:45.798Z,95172.25
2023-04-21T20:33:31.923Z,95176.53
2023-04-21T20:36:18.525Z,95174.69
2023-04-21T20:39:06.532Z,95183.97
2023-04-21T20:42:04.709Z,95183.06
2023-04-21T20:45:02.258Z,95189.84
2023-04-21T20:47:48.429Z,95192.31
2023-04-21T20:50:34.575Z,95195.69
2023-04-21T20:53:21.103Z,95193.22
2023-04-21T20:56:07.399Z,95197.72
2023-04-21T20:58:53.366Z,95196.78
2023-04-21T21:01:41.267Z,95193.81
2023-04-21T21:04:27.433Z,95195.41
2023-04-21T21:07:14.160Z,95195.59
2023-04-21T21:10:00.152Z,95193.13
2023-04-21T21:12:46.023Z,95186.75
2023-04-21T21:15:31.811Z,95190.59
2023-04-21T21:18:17.710Z,95189.53
2023-04-21T21:21:06.714Z,95190.75
2023-04-21T21:23:52.886Z,95197.09
2023-04-21T21:26:42.537Z,95196.81
2023-04-21T21:29:29.884Z,95194.75
2023-04-21T21:32:16.039Z,95208.31
2023-04-21T21:35:02.660Z,95203.88
2023-04-21T21:37:48.837Z,95206.47
2023-04-21T21:40:35.135Z,95209.38
2023-04-21T21:43:21.044Z,95216.13
2023-04-21T21:46:07.163Z,95206.59
2023-04-21T21:48:54.131Z,95201.81
2023-04-21T21:51:40.832Z,95216.34
2023-04-21T21:54:28.256Z,95214.78
2023-04-21T21:57:14.156Z,95218.47
2023-04-21T22:00:02.735Z,95227.72
2023-04-21T22:02:51.180Z,95212.78
2023-04-21T22:05:38.159Z,95222.03
2023-04-21T22:08:24.345Z,95221.09
2023-04-21T22:11:10.070Z,95225.94
2023-04-21T22:13:57.710Z,95233.91
2023-04-21T22:16:46.808Z,95222.78
2023-04-21T22:19:34.120Z,95215.47
2023-04-21T22:22:20.709Z,95234.91
2023-04-21T22:25:07.211Z,95235.13
2023-04-21T22:27:57.701Z,95225.25
2023-04-21T22:30:43.786Z,95212.22
2023-04-21T22:33:29.369Z,95233.41
2023-04-21T22:36:15.687Z,95231.19
2023-04-21T22:39:01.841Z,95240.78
2023-04-21T22:41:47.938Z,95234.41
2023-04-21T22:44:34.102Z,95238.88
2023-04-21T22:47:20.767Z,95228.53
2023-04-21T22:50:07.917Z,95240.34
2023-04-21T22:52:53.868Z,95236.34
2023-04-21T22:55:40.281Z,95244.00
2023-04-21T22:58:26.765Z,95239.69
2023-04-21T23:01:12.829Z,95240.81
2023-04-21T23:03:59.137Z,95237.16
2023-04-21T23:06:45.419Z,95229.81
2023-04-21T23:09:31.066Z,95232.84
2023-04-21T23:12:16.933Z,95222.16
2023-04-21T23:15:02.755Z,95226.47
2023-04-21T23:17:49.008Z,95228.38
2023-04-21T23:20:35.943Z,95234.13
2023-04-21T23:23:21.896Z,95226.19
2023-04-21T23:26:07.836Z,95221.41
2023-04-21T23:28:53.798Z,95223.00
2023-04-21T23:31:39.970Z,95227.28
2023-04-21T23:34:25.956Z,95219.31
2023-04-21T23:37:12.187Z,95218.84
2023-04-21T23:39:58.099Z,95236.69
2023-04-21T23:42:47.234Z,95222.84
2023-04-21T23:45:34.512Z,95238.91
2023-04-21T23:48:20.800Z,95227.47
2023-04-21T23:51:07.336Z,95230.97
2023-04-21T23:53:53.206Z,95232.56
2023-04-21T23:56:39.375Z,95228.91
2023-04-21T23:59:25.601Z,95233.03
